Latest Weather Observations for Gingin Airport

IDW60801

Issued at 8:35 pm WST Wednesday 1 October 2014 (issued every 30 minutes, with the page automatically refreshed every 10 minutes)

About weather observations | Map of weather stations | Latest weather observations for WA | Other Formats
Station Details ID: 009178 Name: GINGIN AERO Lat: -31.46 Lon: 115.86 Height: 73.0 m
Data from the previous 72 hours. | See also: Recent months at Gingin Airport
Date/Time
WST
Temp
°C
App
Temp
°C
Dew
Point
Rel
Hum
%
Delta-T
°C
Wind Press
QNH
hPa
Press
MSL
hPa
Rain
since 9 am
mm
Dir
 
Spd
km/h
Gust
km/h
Spd
kts
Gust
kts
01/08:30pm 23.8 21.6 9.4 40 7.8 N 11 17 6 9 1014.8 1014.7 0.0
01/08:05pm 25.2 19.0 9.5 37 8.6 NE 32 43 17 23 1014.2 1014.1 0.0
01/08:00pm 22.6 20.7 10.4 46 6.7 ENE 11 15 6 8 1014.3 1014.2 0.0
01/07:30pm 24.6 21.9 9.0 37 8.5 E 13 17 7 9 1014.1 1014.0 0.0
01/07:00pm 24.0 22.0 10.3 42 7.6 SE 11 15 6 8 1013.5 1013.4 0.0
01/06:30pm 24.5 21.5 10.8 42 7.7 SE 17 20 9 11 1013.2 1013.1 0.0
01/06:00pm 24.8 23.2 11.4 43 7.6 SE 11 13 6 7 1013.3 1013.2 0.0
01/05:30pm 27.1 25.0 11.2 37 9.1 ESE 13 17 7 9 1013.2 1013.1 0.0
01/05:00pm 27.5 25.4 11.1 36 9.4 SE 13 17 7 9 1013.2 1013.1 0.0
01/04:30pm 27.5 25.9 10.2 34 9.7 SSE 9 13 5 7 1013.2 1013.1 0.0
01/04:00pm 26.7 23.4 10.8 37 9.0 ESE 19 28 10 15 1013.2 1013.1 0.0
01/03:30pm 27.4 24.5 11.0 36 9.3 E 17 20 9 11 1014.2 1014.1 0.0
01/03:00pm 28.3 24.4 9.6 31 10.4 ESE 20 26 11 14 1014.0 1013.9 0.0
01/02:30pm 28.3 23.4 10.0 32 10.3 ESE 26 37 14 20 1014.1 1014.0 0.0
01/02:00pm 28.3 23.6 10.5 33 10.1 ESE 26 35 14 19 1014.3 1014.2 0.0
01/01:30pm 28.0 24.9 11.5 35 9.5 E 19 24 10 13 1015.2 1015.1 0.0
01/01:00pm 26.6 23.0 11.9 40 8.5 E 22 28 12 15 1015.6 1015.5 0.0
01/12:30pm 26.6 22.4 12.3 41 8.3 E 26 33 14 18 1015.8 1015.7 0.0
01/12:00pm 25.9 22.0 10.9 39 8.5 E 22 32 12 17 1016.7 1016.6 0.0
01/11:30am 25.2 21.7 11.0 41 8.0 E 20 26 11 14 1017.5 1017.3 0.0
01/11:00am 25.6 21.6 10.6 39 8.4 ENE 22 30 12 16 1017.9 1017.7 0.0
01/10:30am 24.8 20.3 9.9 39 8.2 ENE 24 35 13 19 1018.1 1017.9 0.0
01/10:00am 23.9 20.0 9.5 40 7.8 ENE 20 26 11 14 1018.3 1018.1 0.0
01/09:30am 24.1 19.6 10.0 41 7.8 ENE 24 33 13 18 1018.5 1018.4 0.0
01/09:00am 22.0 17.5 10.2 47 6.4 ENE 24 35 13 19 1018.5 1018.4 0.0
01/08:30am 20.7 15.1 10.2 51 5.7 E 30 37 16 20 1018.6 1018.5 0.0
01/08:00am 19.2 13.4 9.4 53 5.2 E 30 39 16 21 1018.9 1018.8 0.0
01/07:30am 18.0 14.3 9.6 58 4.4 E 19 30 10 16 1018.8 1018.7 0.0
01/07:00am 16.5 14.4 9.9 65 3.5 E 11 20 6 11 1018.9 1018.8 0.0
01/06:30am 14.7 12.2 9.7 72 2.6 ESE 13 15 7 8 1018.8 1018.7 0.0
01/06:00am 13.8 11.3 9.6 76 2.2 ESE 13 20 7 11 1018.5 1018.4 0.0
01/05:30am 13.5 11.4 9.6 77 2.0 SE 11 13 6 7 1018.8 1018.7 0.0
01/05:00am 13.4 10.9 9.8 79 1.9 SE 13 17 7 9 1018.6 1018.5 0.0
01/04:30am 14.1 11.2 9.7 75 2.3 SE 15 19 8 10 1018.4 1018.3 0.0
01/04:00am 14.3 11.0 9.5 73 2.5 SE 17 19 9 10 1018.4 1018.3 0.0
01/03:30am 14.7 11.5 10.1 74 2.4 ESE 17 20 9 11 1018.5 1018.4 0.0
01/03:00am 11.7 9.7 10.3 91 0.7 E 11 15 6 8 1018.7 1018.6 0.0
01/02:30am 11.9 10.2 10.0 88 1.0 SSE 9 11 5 6 1018.2 1018.1 0.0
01/02:00am 13.1 10.7 10.1 82 1.5 SSE 13 20 7 11 1018.0 1017.9 0.0
01/01:30am 12.7 10.1 10.8 88 1.0 SSE 15 17 8 9 1018.6 1018.5 0.0
01/01:00am 11.8 9.3 11.2 96 0.3 SSE 15 17 8 9 1019.3 1019.2 0.0
01/12:30am 11.9 10.0 11.9 100 0.0 SSE 13 15 7 8 1019.7 1019.6 0.0
01/12:00am 11.4 9.8 11.4 100 0.0 SSE 11 13 6 7 1019.9 1019.8 0.0
 
Date/Time
WST
Temp
°C
App
Temp
°C
Dew
Point
Rel
Hum
%
Delta-T
°C
Wind Press
QNH
hPa
Press
MSL
hPa
Rain
since 9 am
mm
Dir
 
Spd
km/h
Gust
km/h
Spd
kts
Gust
kts
30/11:30pm 11.8 10.7 11.8 100 0.0 SSE 9 11 5 6 1020.3 1020.3 0.0
30/11:00pm 12.3 10.6 12.3 100 0.0 SSE 13 15 7 8 1020.5 1020.5 0.0
30/10:30pm 12.6 11.3 12.6 100 0.0 SSE 11 11 6 6 1020.6 1020.6 0.0
30/10:00pm 13.1 11.6 13.1 100 0.0 SSE 13 13 7 7 1020.8 1020.8 0.0
30/09:30pm 13.6 13.0 13.6 100 0.0 SSE 9 11 5 6 1021.0 1021.0 0.0
30/09:00pm 14.2 13.5 14.2 100 0.0 S 11 11 6 6 1021.2 1021.2 0.0
30/08:30pm 14.8 13.8 14.5 98 0.2 S 13 15 7 8 1021.3 1021.3 0.0
30/08:00pm 15.2 14.0 14.1 93 0.6 SSW 13 15 7 8 1021.2 1021.2 0.0
30/07:30pm 15.8 14.5 13.8 88 1.1 SSW 13 19 7 10 1021.1 1021.1 0.0
30/07:00pm 16.8 15.1 13.5 81 1.9 S 15 19 8 10 1020.6 1020.6 0.0
30/06:30pm 18.0 15.7 12.9 72 2.9 SSW 17 20 9 11 1020.3 1020.3 0.0
30/06:00pm 21.2 18.9 9.1 46 6.4 SSE 11 13 6 7 1020.1 1020.0 0.0
30/05:30pm 22.5 19.4 9.0 42 7.2 SE 15 20 8 11 1019.9 1019.8 0.0
30/05:00pm 22.9 18.1 7.4 37 8.1 ESE 22 32 12 17 1019.9 1019.8 0.0
30/04:30pm 23.1 19.0 8.0 38 8.0 SE 19 26 10 14 1019.9 1019.8 0.0
30/04:00pm 23.4 19.9 8.7 39 7.9 ESE 17 24 9 13 1020.0 1019.9 0.0
30/03:30pm 23.2 19.8 9.2 41 7.6 SE 17 32 9 17 1020.0 1019.9 0.0
30/03:00pm 22.9 19.6 9.7 43 7.2 ESE 17 24 9 13 1020.2 1020.1 0.0
30/02:30pm 22.5 20.1 10.0 45 6.8 SE 13 19 7 10 1020.2 1020.1 0.0
30/02:00pm 22.4 19.7 10.2 46 6.7 E 15 26 8 14 1020.6 1020.6 0.0
30/01:30pm 22.0 19.6 9.9 46 6.6 ESE 13 20 7 11 1020.8 1020.8 0.0
30/01:00pm 21.3 18.2 10.2 49 6.0 ESE 17 26 9 14 1021.3 1021.3 0.0
30/12:30pm 20.4 17.8 10.8 54 5.3 ESE 15 22 8 12 1021.7 1021.7 0.0
30/12:00pm 19.7 16.4 9.6 52 5.4 E 17 26 9 14 1022.1 1022.1 0.0
30/11:30am 19.2 15.6 9.7 54 5.1 SE 19 28 10 15 1022.5 1022.5 0.0
30/11:00am 18.5 15.4 10.3 59 4.4 E 17 24 9 13 1022.9 1022.9 0.0
30/10:30am 18.3 14.8 10.2 59 4.3 E 19 32 10 17 1023.2 1023.2 0.0
30/10:00am 18.4 14.1 10.7 61 4.1 E 24 32 13 17 1023.3 1023.3 0.0
30/09:30am 16.5 12.8 10.1 66 3.4 SE 20 28 11 15 1023.5 1023.5 0.0
30/09:00am 15.7 11.9 9.8 68 3.1 ESE 20 30 11 16 1023.6 1023.6 0.4
30/08:30am 15.9 12.5 11.3 74 2.5 ESE 20 26 11 14 1023.5 1023.5 0.4
30/08:00am 14.6 12.0 11.9 84 1.5 ESE 17 20 9 11 1023.4 1023.4 0.4
30/07:30am 14.2 12.6 12.8 91 0.8 ESE 13 15 7 8 1023.1 1023.1 0.4
30/07:00am 13.1 11.8 12.6 97 0.3 ESE 11 15 6 8 1022.8 1022.8 0.4
30/06:30am 12.1 11.4 12.1 100 0.0 SE 7 9 4 5 1022.6 1022.6 0.4
30/06:00am 12.0 11.3 12.0 100 0.0 SE 7 9 4 5 1022.4 1022.4 0.4
30/05:30am 12.5 11.6 12.5 100 0.0 ESE 9 13 5 7 1022.0 1022.0 0.4
30/05:00am 12.5 11.6 12.5 100 0.0 ESE 9 11 5 6 1021.7 1021.7 0.4
30/04:30am 12.3 11.3 12.3 100 0.0 ESE 9 11 5 6 1021.5 1021.5 0.4
30/04:00am 12.1 11.4 12.1 100 0.0 E 7 9 4 5 1021.2 1021.2 0.4
30/03:30am 12.0 11.5 12.0 100 0.0 SSE 6 9 3 5 1021.1 1021.1 0.4
30/03:00am 12.1 11.6 12.1 100 0.0 ENE 6 7 3 4 1021.1 1021.1 0.4
30/02:30am 12.3 10.9 12.3 100 0.0 ENE 11 13 6 7 1021.1 1021.1 0.4
30/02:00am 11.8 12.4 11.8 100 0.0 CALM 0 0 0 0 1021.2 1021.2 0.4
30/01:30am 11.1 11.5 11.1 100 0.0 CALM 0 0 0 0 1021.0 1021.0 0.4
30/01:00am 11.7 12.2 11.7 100 0.0 CALM 0 0 0 0 1021.0 1021.0 0.4
30/12:30am 13.2 14.2 13.2 100 0.0 CALM 0 0 0 0 1020.9 1020.9 0.4
30/12:00am 13.9 14.0 13.9 100 0.0 ESE 6 7 3 4 1021.2 1021.2 0.4
 
Date/Time
WST
Temp
°C
App
Temp
°C
Dew
Point
Rel
Hum
%
Delta-T
°C
Wind Press
QNH
hPa
Press
MSL
hPa
Rain
since 9 am
mm
Dir
 
Spd
km/h
Gust
km/h
Spd
kts
Gust
kts
29/11:30pm 14.3 14.5 14.1 99 0.1 SE 6 7 3 4 1021.2 1021.2 0.4
29/11:00pm 14.4 14.1 14.4 100 0.0 SSE 9 11 5 6 1021.3 1021.3 0.4
29/10:30pm 14.2 13.8 14.2 100 0.0 S 9 11 5 6 1021.3 1021.3 0.4
29/10:00pm 15.0 14.9 15.0 100 0.0 S 9 9 5 5 1021.3 1021.3 0.4
29/09:30pm 15.2 15.2 15.2 100 0.0 SW 9 9 5 5 1021.4 1021.4 0.4
29/09:00pm 15.4 15.5 15.4 100 0.0 SSW 9 11 5 6 1021.2 1021.2 0.4
29/08:30pm 15.7 16.3 15.7 100 0.0 S 7 9 4 5 1021.1 1021.1 0.4
29/08:00pm 15.7 16.4 15.7 100 0.0 S 6 7 3 4 1020.8 1020.8 0.4
29/07:30pm 15.6 16.0 15.4 99 0.1 S 7 9 4 5 1020.3 1020.3 0.4
29/07:00pm 15.7 16.1 15.4 98 0.2 WSW 7 9 4 5 1020.0 1019.9 0.4
29/06:30pm 15.9 15.7 14.6 92 0.7 SW 9 13 5 7 1019.7 1019.6 0.4
29/06:00pm 16.7 15.1 14.0 84 1.5 SW 15 20 8 11 1019.5 1019.4 0.4
29/05:30pm 17.5 15.0 14.0 80 2.0 WSW 20 24 11 13 1019.2 1019.1 0.4
29/05:00pm 17.9 15.9 15.0 83 1.7 SW 19 24 10 13 1018.8 1018.7 0.4
29/04:30pm 18.4 15.1 13.9 75 2.6 WSW 24 28 13 15 1018.6 1018.5 0.4
29/04:00pm 19.5 15.9 13.2 67 3.6 WSW 24 30 13 16 1018.2 1018.1 0.4
29/03:30pm 20.2 17.4 13.2 64 4.0 W 20 28 11 15 1017.6 1017.5 0.4
29/03:00pm 19.9 16.7 13.1 65 3.9 W 22 30 12 16 1017.7 1017.6 0.4
29/02:30pm 19.7 15.8 13.4 67 3.6 WSW 26 35 14 19 1017.7 1017.6 0.4
29/02:00pm 20.9 17.9 12.6 59 4.7 W 20 39 11 21 1017.7 1017.6 0.4
29/01:30pm 19.5 16.8 13.4 68 3.5 W 20 33 11 18 1017.8 1017.7 0.4
29/01:00pm 19.3 16.3 14.8 75 2.6 W 24 33 13 18 1018.1 1018.0 0.4
29/12:30pm 19.7 17.7 15.4 76 2.5 WSW 20 32 11 17 1018.2 1018.1 0.4
29/12:00pm 18.8 15.2 15.3 80 2.1 W 28 35 15 19 1018.4 1018.3 0.4
29/11:30am 19.3 16.8 15.2 77 2.4 W 22 33 12 18 1018.2 1018.1 0.4
29/11:00am 19.2 17.2 16.4 84 1.7 W 22 32 12 17 1018.4 1018.3 0.4
29/10:30am 18.3 18.0 18.3 100 0.0 WNW 17 22 9 12 1018.4 1018.3 0.4
29/10:00am 16.2 15.0 16.2 100 0.0 W 17 26 9 14 1018.6 1018.5 0.4
29/09:30am 16.3 16.3 16.3 100 0.0 WNW 11 17 6 9 1018.3 1018.2 0.0
29/09:00am 15.5 14.8 15.5 100 0.0 WNW 13 19 7 10 1018.3 1018.2 2.6
29/08:30am 15.1 14.7 15.1 100 0.0 NNW 11 17 6 9 1018.1 1018.0 2.6
29/08:00am 14.1 13.7 14.1 100 0.0 NW 9 11 5 6 1017.9 1017.8 2.6
29/07:30am 13.6 12.7 13.6 100 0.0 NNW 11 15 6 8 1017.7 1017.6 2.4
29/07:00am 12.8 11.6 12.8 100 0.0 N 11 15 6 8 1017.2 1017.1 2.4
29/06:30am 12.0 10.5 12.0 100 0.0 N 11 13 6 7 1016.7 1016.7 2.4
29/06:00am 11.4 9.8 11.4 100 0.0 N 11 13 6 7 1016.5 1016.5 2.4
29/05:30am 11.3 10.0 11.3 100 0.0 N 9 11 5 6 1016.3 1016.3 2.4
29/05:00am 11.4 9.8 11.4 100 0.0 N 11 13 6 7 1016.0 1016.0 2.4
29/04:30am 11.6 9.6 11.6 100 0.0 N 13 13 7 7 1015.9 1015.9 2.4
29/04:00am 11.6 10.0 11.6 100 0.0 N 11 13 6 7 1016.0 1016.0 2.4
29/03:30am 12.0 10.9 12.0 100 0.0 N 9 13 5 7 1016.1 1016.1 2.4
29/03:00am 12.4 11.1 12.4 100 0.0 N 11 13 6 7 1016.3 1016.3 2.4
29/02:30am 12.6 11.7 12.6 100 0.0 N 9 13 5 7 1016.4 1016.4 2.4
29/02:00am 12.8 12.0 12.8 100 0.0 NNW 9 17 5 9 1016.5 1016.5 2.4
29/01:30am 12.3 10.9 12.3 100 0.0 N 11 15 6 8 1016.6 1016.6 2.2
29/01:00am 12.4 11.1 12.4 100 0.0 N 11 15 6 8 1016.8 1016.8 2.2
29/12:30am 12.5 11.6 12.5 100 0.0 N 9 11 5 6 1016.9 1016.9 2.2
29/12:00am 12.8 12.0 12.8 100 0.0 N 9 11 5 6 1017.0 1017.0 2.2
 
Date/Time
WST
Temp
°C
App
Temp
°C
Dew
Point
Rel
Hum
%
Delta-T
°C
Wind Press
QNH
hPa
Press
MSL
hPa
Rain
since 9 am
mm
Dir
 
Spd
km/h
Gust
km/h
Spd
kts
Gust
kts
28/11:30pm 13.1 12.4 13.1 100 0.0 N 9 13 5 7 1017.3 1017.2 2.2
28/11:00pm 13.2 11.7 13.2 100 0.0 N 13 17 7 9 1017.4 1017.3 2.2
28/10:30pm 13.1 12.9 13.1 100 0.0 N 6 9 3 5 1017.8 1017.7 2.0
28/10:00pm 12.7 12.2 12.7 100 0.0 N 7 9 4 5 1017.9 1017.8 2.0
28/09:30pm 13.5 13.3 13.5 100 0.0 N 7 9 4 5 1018.2 1018.1 2.0
28/09:00pm 13.7 12.4 13.7 100 0.0 NW 13 20 7 11 1018.4 1018.3 2.0

Other Formats:

Comma delimited format used in spreadsheet applications
http://www.bom.gov.au/fwo/IDW60801/IDW60801.95612.axf

JavaScript Object Notation format (JSON) in row-major order
http://www.bom.gov.au/fwo/IDW60801/IDW60801.95612.json